Time;durP1;ratioP1;P1;durP2;ratioP2;P2;SDS_P1;SDS_P2;PMS_P1;PMS_P2;Temp;Humidity;BMP_temperature;BMP_pressure;BME280_temperature;BME280_humidity;BME280_pressure;Samples;Min_cycle;Max_cycle;Signal;HPM_P1;HPM_P2
2024/02/08 00:00:18;;;;;;;8.25;6.00;;;;;;;;;;5016948;28;20128;-84
2024/02/08 00:02:45;;;;;;;7.15;5.43;;;;;;;;;;5033984;28;20057;-84
2024/02/08 00:05:12;;;;;;;5.63;4.63;;;;;;;;;;5017151;28;20107;-84
2024/02/08 00:07:40;;;;;;;6.60;4.55;;;;;;;;;;5016855;28;20429;-84
2024/02/08 00:10:08;;;;;;;4.68;3.95;;;;;;;;;;5017126;28;20041;-84
2024/02/08 00:12:39;;;;;;;6.00;4.40;;;;;;;;;;5016799;28;20053;-84
2024/02/08 00:15:09;;;;;;;8.40;4.70;;;;;;;;;;5013267;28;20053;-84
2024/02/08 00:17:36;;;;;;;6.40;4.28;;;;;;;;;;5006199;28;20461;-84
2024/02/08 00:20:06;;;;;;;4.45;3.47;;;;;;;;;;5029554;28;20045;-84
2024/02/08 00:22:33;;;;;;;7.97;4.22;;;;;;;;;;5031188;28;20148;-84
2024/02/08 00:25:01;;;;;;;4.40;4.00;;;;;;;;;;5016625;28;20045;-84
2024/02/08 00:27:28;;;;;;;5.05;3.65;;;;;;;;;;5016515;28;20057;-84
2024/02/08 00:29:55;;;;;;;5.25;4.18;;;;;;;;;;5016230;28;20053;-83
2024/02/08 00:32:25;;;;;;;7.03;4.10;;;;;;;;;;5033980;28;20704;-83
2024/02/08 00:34:52;;;;;;;5.35;4.05;;;;;;;;;;5033796;28;20409;-83
2024/02/08 00:37:19;;;;;;;4.55;3.75;;;;;;;;;;5016221;28;20152;-83
2024/02/08 00:39:47;;;;;;;5.28;3.92;;;;;;;;;;5025633;28;20453;-83
2024/02/08 00:42:14;;;;;;;9.32;5.00;;;;;;;;;;5025530;28;20092;-84
2024/02/08 00:44:42;;;;;;;4.85;3.47;;;;;;;;;;5008309;28;20112;-83
2024/02/08 00:47:09;;;;;;;4.60;3.30;;;;;;;;;;5035067;28;20045;-83
2024/02/08 00:49:39;;;;;;;5.00;3.28;;;;;;;;;;5051119;28;20036;-83
2024/02/08 00:52:09;;;;;;;3.25;3.05;;;;;;;;;;5017567;28;20099;-83
2024/02/08 00:54:37;;;;;;;3.38;2.97;;;;;;;;;;5033649;28;20042;-83
2024/02/08 00:57:07;;;;;;;4.60;3.53;;;;;;;;;;5015971;28;20050;-83
2024/02/08 00:59:38;;;;;;;4.22;3.42;;;;;;;;;;5008018;28;20060;-83
2024/02/08 01:02:11;;;;;;;4.75;2.78;;;;;;;;;;5033018;28;20056;-83
2024/02/08 01:04:38;;;;;;;9.20;4.97;;;;;;;;;;5033478;28;20399;-84
2024/02/08 01:07:06;;;;;;;11.00;6.30;;;;;;;;;;5015239;28;20168;-83
2024/02/08 01:09:33;;;;;;;16.85;7.45;;;;;;;;;;5015643;28;20057;-83
2024/02/08 01:12:01;;;;;;;16.88;9.07;;;;;;;;;;5033207;28;20482;-83
2024/02/08 01:14:30;;;;;;;17.15;8.68;;;;;;;;;;5015893;28;20053;-83
2024/02/08 01:16:57;;;;;;;13.90;8.15;;;;;;;;;;5015734;28;20140;-83
2024/02/08 01:19:25;;;;;;;18.17;9.07;;;;;;;;;;5033308;28;20049;-83
2024/02/08 01:21:53;;;;;;;20.25;8.60;;;;;;;;;;5032739;28;20049;-84
2024/02/08 01:24:20;;;;;;;11.80;6.90;;;;;;;;;;5015534;28;20454;-83
2024/02/08 01:26:48;;;;;;;20.60;8.98;;;;;;;;;;5015211;28;20053;-83
2024/02/08 01:29:16;;;;;;;17.92;9.10;;;;;;;;;;5015540;28;20049;-83
2024/02/08 01:31:44;;;;;;;15.50;8.38;;;;;;;;;;5032942;28;20058;-83
2024/02/08 01:34:11;;;;;;;14.70;7.55;;;;;;;;;;5015363;28;20472;-84
2024/02/08 01:36:40;;;;;;;24.05;9.07;;;;;;;;;;5014836;28;20071;-83
2024/02/08 01:39:12;;;;;;;15.50;8.27;;;;;;;;;;5015378;28;20413;-83
2024/02/08 01:41:43;;;;;;;14.65;7.88;;;;;;;;;;5015501;28;20474;-83
2024/02/08 01:44:12;;;;;;;13.13;7.05;;;;;;;;;;5015415;28;20059;-83
2024/02/08 01:46:40;;;;;;;11.80;7.32;;;;;;;;;;5015105;28;20046;-83
2024/02/08 01:49:20;;;;;;;13.15;8.13;;;;;;;;;;5032506;28;20489;-83
2024/02/08 01:51:48;;;;;;;18.15;8.15;;;;;;;;;;5015038;28;20103;-83
2024/02/08 01:54:16;;;;;;;11.68;6.88;;;;;;;;;;5015285;28;20046;-83
2024/02/08 01:56:44;;;;;;;13.07;7.35;;;;;;;;;;5014829;28;20054;-83
2024/02/08 01:59:13;;;;;;;13.35;7.20;;;;;;;;;;5032722;28;20053;-83
2024/02/08 02:01:50;;;;;;;12.07;6.07;;;;;;;;;;5016295;28;20073;-82
2024/02/08 02:04:18;;;;;;;18.77;9.10;;;;;;;;;;5050450;28;20494;-83
2024/02/08 02:06:46;;;;;;;13.57;7.47;;;;;;;;;;5032610;28;20068;-83
2024/02/08 02:09:23;;;;;;;18.48;7.88;;;;;;;;;;5015072;28;20284;-83
2024/02/08 02:11:55;;;;;;;27.60;9.70;;;;;;;;;;5014759;28;20137;-84
2024/02/08 02:14:29;;;;;;;26.70;11.50;;;;;;;;;;5006852;28;20049;-84
2024/02/08 02:17:09;;;;;;;28.17;10.27;;;;;;;;;;5006863;28;20049;-84
2024/02/08 02:19:37;;;;;;;15.18;8.80;;;;;;;;;;5031822;28;20116;-83
2024/02/08 02:22:07;;;;;;;12.63;8.05;;;;;;;;;;5014735;28;20080;-84
2024/02/08 02:24:36;;;;;;;13.30;7.10;;;;;;;;;;5014269;28;20054;-84
2024/02/08 02:27:07;;;;;;;12.60;5.60;;;;;;;;;;5014571;28;20049;-84
2024/02/08 02:29:34;;;;;;;13.68;6.72;;;;;;;;;;5032313;28;20064;-83
2024/02/08 02:32:03;;;;;;;24.77;10.38;;;;;;;;;;5032145;28;20081;-83
2024/02/08 02:34:31;;;;;;;15.10;7.95;;;;;;;;;;5014586;28;20133;-84
2024/02/08 02:36:58;;;;;;;14.25;7.10;;;;;;;;;;5014223;28;20059;-83
2024/02/08 02:39:26;;;;;;;17.83;7.43;;;;;;;;;;5015036;28;20104;-84
2024/02/08 02:41:53;;;;;;;12.77;7.22;;;;;;;;;;5014763;28;20084;-84
2024/02/08 02:44:21;;;;;;;11.82;6.65;;;;;;;;;;5032083;28;20049;-84
2024/02/08 02:46:51;;;;;;;11.02;6.75;;;;;;;;;;5006166;28;20100;-84
2024/02/08 02:49:20;;;;;;;12.68;7.50;;;;;;;;;;5014596;28;20138;-83
2024/02/08 02:51:52;;;;;;;19.00;8.43;;;;;;;;;;5014377;28;20413;-84
2024/02/08 02:54:19;;;;;;;16.25;8.68;;;;;;;;;;5014635;28;20422;-84
2024/02/08 02:56:47;;;;;;;28.48;10.43;;;;;;;;;;5031722;28;20455;-84
2024/02/08 02:59:16;;;;;;;34.00;12.25;;;;;;;;;;5014658;28;20057;-84
2024/02/08 03:01:47;;;;;;;18.23;9.93;;;;;;;;;;5014287;28;20145;-84
2024/02/08 03:04:16;;;;;;;30.08;11.27;;;;;;;;;;5013870;28;20053;-83
2024/02/08 03:06:47;;;;;;;28.95;10.80;;;;;;;;;;5014251;28;20049;-83
2024/02/08 03:09:15;;;;;;;20.27;10.35;;;;;;;;;;5014383;28;20095;-83
2024/02/08 03:11:44;;;;;;;24.70;10.75;;;;;;;;;;5014270;28;20079;-84
2024/02/08 03:14:14;;;;;;;22.60;10.95;;;;;;;;;;5014488;28;20058;-83
2024/02/08 03:16:42;;;;;;;24.73;11.25;;;;;;;;;;5023975;28;20045;-84
2024/02/08 03:19:10;;;;;;;23.42;11.45;;;;;;;;;;5025321;28;20085;-84
2024/02/08 03:21:40;;;;;;;26.42;10.88;;;;;;;;;;5032048;28;20053;-84
2024/02/08 03:24:08;;;;;;;29.38;11.50;;;;;;;;;;5014226;28;20056;-84
2024/02/08 03:26:47;;;;;;;45.25;13.05;;;;;;;;;;5013931;28;20053;-84
2024/02/08 03:29:15;;;;;;;19.35;10.50;;;;;;;;;;5014870;28;20068;-84
2024/02/08 03:31:47;;;;;;;20.75;10.65;;;;;;;;;;5035354;28;20568;-84
2024/02/08 03:34:29;;;;;;;26.20;11.13;;;;;;;;;;5011452;28;20061;-84
2024/02/08 03:36:57;;;;;;;27.90;10.90;;;;;;;;;;5034898;28;20050;-84
2024/02/08 03:39:25;;;;;;;21.98;9.82;;;;;;;;;;5035001;28;20550;-85
2024/02/08 03:41:58;;;;;;;18.08;9.00;;;;;;;;;;5034074;28;20064;-84
2024/02/08 03:44:28;;;;;;;18.63;8.82;;;;;;;;;;5017110;28;20130;-84
2024/02/08 03:46:55;;;;;;;26.10;9.50;;;;;;;;;;5009336;28;20118;-84
2024/02/08 03:49:24;;;;;;;15.65;7.88;;;;;;;;;;5017439;28;20131;-84
2024/02/08 03:51:52;;;;;;;21.80;8.90;;;;;;;;;;5017001;28;20045;-84
2024/02/08 03:54:19;;;;;;;18.52;8.60;;;;;;;;;;5009182;28;20049;-84
2024/02/08 03:56:50;;;;;;;18.30;8.98;;;;;;;;;;5017075;28;20103;-84
2024/02/08 03:59:27;;;;;;;15.57;9.43;;;;;;;;;;5017509;28;20101;-84
2024/02/08 04:02:00;;;;;;;24.42;10.65;;;;;;;;;;5017319;28;20134;-84
2024/02/08 04:04:29;;;;;;;16.33;7.78;;;;;;;;;;5017251;28;20049;-84
2024/02/08 04:07:19;;;;;;;12.80;7.55;;;;;;;;;;5034344;28;20391;-84
2024/02/08 04:09:56;;;;;;;11.77;6.43;;;;;;;;;;5017314;28;20405;-85
2024/02/08 04:54:03;;;;;;;27.60;9.98;;;;;;;;;;5022763;28;20065;-86
2024/02/08 04:56:31;;;;;;;16.27;8.60;;;;;;;;;;5005343;28;20516;-86
2024/02/08 04:58:58;;;;;;;31.60;11.98;;;;;;;;;;5025775;28;20049;-85
2024/02/08 05:01:46;;;;;;;23.25;10.30;;;;;;;;;;5025551;28;20059;-85
2024/02/08 05:04:13;;;;;;;20.33;9.30;;;;;;;;;;5008538;28;20057;-86
2024/02/08 05:06:43;;;;;;;24.73;10.05;;;;;;;;;;5031802;28;20128;-86
2024/02/08 05:09:15;;;;;;;21.10;10.35;;;;;;;;;;5004770;28;20058;-85
2024/02/08 05:11:43;;;;;;;25.27;9.95;;;;;;;;;;5006837;28;20045;-86
2024/02/08 05:14:10;;;;;;;44.00;11.82;;;;;;;;;;5010713;28;20054;-85
2024/02/08 05:16:39;;;;;;;27.70;10.85;;;;;;;;;;5010606;28;20465;-86
2024/02/08 05:19:09;;;;;;;24.77;10.63;;;;;;;;;;5005209;28;20136;-86
2024/02/08 05:21:40;;;;;;;38.20;11.10;;;;;;;;;;5006234;28;20096;-85
2024/02/08 05:24:12;;;;;;;30.00;10.48;;;;;;;;;;5008059;28;20103;-85
2024/02/08 05:26:41;;;;;;;22.90;10.30;;;;;;;;;;5025390;28;20042;-86
2024/02/08 05:29:08;;;;;;;22.80;9.65;;;;;;;;;;5010938;28;20052;-86
2024/02/08 05:31:39;;;;;;;25.98;10.88;;;;;;;;;;5012770;28;20568;-87
2024/02/08 05:34:07;;;;;;;32.30;11.40;;;;;;;;;;5017262;28;20068;-86
2024/02/08 05:36:44;;;;;;;34.72;12.15;;;;;;;;;;5007162;28;20054;-86
2024/02/08 05:39:12;;;;;;;32.90;11.32;;;;;;;;;;5027798;28;20449;-87
2024/02/08 05:41:44;;;;;;;26.33;10.30;;;;;;;;;;5007954;28;20081;-86
2024/02/08 05:44:14;;;;;;;28.15;10.15;;;;;;;;;;5016628;28;20054;-87
2024/02/08 05:46:41;;;;;;;20.65;9.07;;;;;;;;;;5036046;28;20088;-87
2024/02/08 05:49:11;;;;;;;20.27;8.30;;;;;;;;;;5008192;28;20103;-86
2024/02/08 05:51:46;;;;;;;14.98;7.50;;;;;;;;;;5006804;28;20063;-87
2024/02/08 05:54:20;;;;;;;16.80;8.45;;;;;;;;;;5004054;28;20076;-87
2024/02/08 05:56:48;;;;;;;16.60;8.70;;;;;;;;;;5007175;28;20046;-87
2024/02/08 05:59:19;;;;;;;23.20;8.57;;;;;;;;;;5018278;28;20050;-87
2024/02/08 06:01:47;;;;;;;27.70;9.13;;;;;;;;;;5006459;28;20072;-87
2024/02/08 06:04:22;;;;;;;18.27;8.63;;;;;;;;;;5007287;28;20053;-87
2024/02/08 06:07:05;;;;;;;14.82;7.88;;;;;;;;;;5007349;28;20103;-87
2024/02/08 06:12:23;;;;;;;28.58;10.27;;;;;;;;;;5021818;28;20054;-88
2024/02/08 06:14:58;;;;;;;27.17;11.10;;;;;;;;;;5007546;28;20045;-88
2024/02/08 06:17:33;;;;;;;20.02;8.60;;;;;;;;;;5007976;28;20060;-87
2024/02/08 06:20:00;;;;;;;23.60;9.90;;;;;;;;;;5028811;28;20046;-87
2024/02/08 06:22:29;;;;;;;26.13;11.18;;;;;;;;;;5004071;28;20057;-87
2024/02/08 06:25:08;;;;;;;37.90;12.00;;;;;;;;;;5021766;28;20054;-88
2024/02/08 06:27:41;;;;;;;40.78;13.40;;;;;;;;;;5022634;28;20046;-88
2024/02/08 06:30:12;;;;;;;46.67;14.55;;;;;;;;;;5007959;28;20504;-88
2024/02/08 06:32:45;;;;;;;33.65;12.75;;;;;;;;;;5023511;28;20153;-89
2024/02/08 06:35:19;;;;;;;23.80;11.63;;;;;;;;;;5004315;28;20058;-88
2024/02/08 06:38:00;;;;;;;50.85;15.40;;;;;;;;;;5006903;28;20152;-88
2024/02/08 06:40:37;;;;;;;29.33;12.32;;;;;;;;;;5025298;28;20053;-88
2024/02/08 06:46:06;;;;;;;56.07;14.33;;;;;;;;;;5024423;28;20050;-89
2024/02/08 06:48:48;;;;;;;34.15;12.00;;;;;;;;;;5007539;28;20034;-90
2024/02/08 07:41:21;;;;;;;32.17;12.05;;;;;;;;;;5024828;28;20147;-92
2024/02/08 07:43:55;;;;;;;35.80;15.20;;;;;;;;;;5009462;28;20050;-92
2024/02/08 07:46:29;;;;;;;34.72;14.98;;;;;;;;;;5015774;28;20061;-92
2024/02/08 07:48:58;;;;;;;34.25;15.13;;;;;;;;;;5007873;28;20072;-92
2024/02/08 07:51:28;;;;;;;44.03;17.88;;;;;;;;;;5015309;28;20145;-94
2024/02/08 07:53:58;;;;;;;56.17;18.92;;;;;;;;;;5007539;28;20054;-94
2024/02/08 07:56:46;;;;;;;42.13;17.38;;;;;;;;;;5002963;28;20088;-93
2024/02/08 07:59:26;;;;;;;37.03;16.65;;;;;;;;;;5013397;28;20096;-93
2024/02/08 08:01:57;;;;;;;34.90;15.38;;;;;;;;;;5007624;28;20053;-93
2024/02/08 08:04:41;;;;;;;32.72;14.57;;;;;;;;;;5006919;28;20517;-93
2024/02/08 08:07:12;;;;;;;39.53;14.77;;;;;;;;;;5007772;28;20045;-93
2024/02/08 08:09:41;;;;;;;40.28;14.88;;;;;;;;;;5007198;28;20062;-94
2024/02/08 08:12:08;;;;;;;27.27;13.23;;;;;;;;;;5007314;28;20049;-93
2024/02/08 08:15:13;;;;;;;40.67;15.13;;;;;;;;;;5025912;28;20050;-95
2024/02/08 08:19:54;;;;;;;35.97;15.35;;;;;;;;;;5024830;28;20050;-94
2024/02/08 08:27:53;;;;;;;25.02;12.18;;;;;;;;;;5035270;28;20100;-94
2024/02/08 08:30:29;;;;;;;32.70;14.15;;;;;;;;;;5010514;28;20050;-94
2024/02/08 08:35:47;;;;;;;36.97;14.63;;;;;;;;;;5032170;28;20062;-94
2024/02/08 08:40:49;;;;;;;23.63;12.13;;;;;;;;;;5034197;28;20140;-93
2024/02/08 08:43:22;;;;;;;34.67;14.77;;;;;;;;;;5011690;28;20056;-92
2024/02/08 08:45:51;;;;;;;24.60;12.02;;;;;;;;;;5006814;28;20119;-93
2024/02/08 08:48:19;;;;;;;20.88;10.88;;;;;;;;;;5006185;28;20050;-92
2024/02/08 08:50:55;;;;;;;28.98;12.48;;;;;;;;;;5016934;28;20433;-91
2024/02/08 08:53:27;;;;;;;31.85;14.02;;;;;;;;;;5010274;28;20045;-92
2024/02/08 08:55:55;;;;;;;36.95;15.05;;;;;;;;;;5006673;28;20053;-91
2024/02/08 08:58:27;;;;;;;31.73;15.00;;;;;;;;;;5005972;28;20137;-91
2024/02/08 09:03:43;;;;;;;31.23;14.50;;;;;;;;;;5018386;28;20042;-91
2024/02/08 09:06:12;;;;;;;37.53;15.63;;;;;;;;;;5009501;28;20049;-91
2024/02/08 09:08:54;;;;;;;33.25;14.80;;;;;;;;;;5009887;28;20053;-91
2024/02/08 09:11:24;;;;;;;38.75;13.73;;;;;;;;;;5009661;28;20057;-91
2024/02/08 09:13:53;;;;;;;32.53;13.23;;;;;;;;;;5006126;28;20057;-91
2024/02/08 09:21:32;;;;;;;28.77;12.57;;;;;;;;;;5026449;28;20060;-92
2024/02/08 09:24:03;;;;;;;29.80;12.88;;;;;;;;;;5006548;28;20053;-92
2024/02/08 09:26:48;;;;;;;39.88;13.73;;;;;;;;;;5006195;28;20080;-92
2024/02/08 09:29:23;;;;;;;50.47;24.83;;;;;;;;;;5032237;28;20069;-91
2024/02/08 09:31:58;;;;;;;37.97;16.52;;;;;;;;;;5012803;28;20510;-91
2024/02/08 09:34:40;;;;;;;31.55;14.85;;;;;;;;;;5002275;28;20060;-92
2024/02/08 09:37:09;;;;;;;35.00;13.50;;;;;;;;;;5007572;28;20056;-91
2024/02/08 09:39:53;;;;;;;27.75;12.02;;;;;;;;;;5013980;28;20050;-91
2024/02/08 09:42:26;;;;;;;22.20;10.80;;;;;;;;;;5011046;28;20423;-92
2024/02/08 09:45:13;;;;;;;26.52;11.48;;;;;;;;;;5002643;28;20529;-91
2024/02/08 09:47:54;;;;;;;30.58;14.35;;;;;;;;;;5003856;28;20496;-90
2024/02/08 09:50:31;;;;;;;28.95;13.77;;;;;;;;;;5005627;28;20064;-91
2024/02/08 09:53:15;;;;;;;30.80;14.13;;;;;;;;;;5001996;28;20062;-90
2024/02/08 09:55:57;;;;;;;36.10;15.07;;;;;;;;;;5003904;28;20050;-91
2024/02/08 09:58:33;;;;;;;33.13;16.40;;;;;;;;;;5005477;28;20132;-91
2024/02/08 10:01:43;;;;;;;27.50;14.88;;;;;;;;;;5008984;28;20073;-91
2024/02/08 10:04:07;;;;;;;30.25;14.43;;;;;;;;;;4997418;28;20144;-91
2024/02/08 10:06:41;;;;;;;28.00;12.98;;;;;;;;;;4997785;28;20046;-91
2024/02/08 10:09:34;;;;;;;27.98;13.57;;;;;;;;;;5005290;28;20046;-91
2024/02/08 10:12:06;;;;;;;24.10;12.35;;;;;;;;;;5002969;28;20081;-91
2024/02/08 10:14:34;;;;;;;30.13;13.20;;;;;;;;;;5002565;28;20042;-91
2024/02/08 10:17:52;;;;;;;25.73;12.60;;;;;;;;;;5005975;28;20054;-91
2024/02/08 10:22:54;;;;;;;28.05;13.48;;;;;;;;;;5002984;28;20050;-92
2024/02/08 10:28:11;;;;;;;23.83;12.68;;;;;;;;;;5013960;28;20050;-91
2024/02/08 10:30:44;;;;;;;27.58;13.60;;;;;;;;;;5005432;28;20058;-91
2024/02/08 10:33:14;;;;;;;25.98;14.05;;;;;;;;;;5013556;28;20049;-93
2024/02/08 10:35:43;;;;;;;24.27;14.23;;;;;;;;;;4996421;28;20410;-92
2024/02/08 10:38:25;;;;;;;14.35;9.40;;;;;;;;;;5004807;28;20057;-92
2024/02/08 10:40:55;;;;;;;8.85;6.75;;;;;;;;;;5013174;28;20487;-91
2024/02/08 10:43:25;;;;;;;8.90;6.07;;;;;;;;;;5027016;28;20046;-90
2024/02/08 10:45:53;;;;;;;8.60;6.75;;;;;;;;;;5011651;28;20462;-91
2024/02/08 10:48:22;;;;;;;11.20;7.55;;;;;;;;;;5005641;28;20128;-92
2024/02/08 10:50:51;;;;;;;11.48;7.43;;;;;;;;;;5008280;28;20589;-91
2024/02/08 10:56:14;;;;;;;6.20;4.93;;;;;;;;;;5012863;28;20061;-91
2024/02/08 10:58:55;;;;;;;9.18;5.90;;;;;;;;;;5011416;28;20050;-91
2024/02/08 11:01:37;;;;;;;7.30;6.03;;;;;;;;;;5005662;28;20050;-92
2024/02/08 11:04:17;;;;;;;11.15;7.20;;;;;;;;;;5012241;28;20454;-91
2024/02/08 11:06:54;;;;;;;5.70;5.18;;;;;;;;;;5007253;28;20165;-92
2024/02/08 11:09:27;;;;;;;4.97;4.25;;;;;;;;;;5008502;28;20570;-93
2024/02/08 11:11:59;;;;;;;5.88;5.00;;;;;;;;;;5016621;28;20068;-92
2024/02/08 11:14:28;;;;;;;6.95;5.05;;;;;;;;;;5008174;28;20530;-93
2024/02/08 11:17:03;;;;;;;5.78;5.20;;;;;;;;;;5012610;28;20054;-93
2024/02/08 11:19:39;;;;;;;3.35;3.05;;;;;;;;;;5005205;28;20074;-94
2024/02/08 11:22:39;;;;;;;3.83;3.40;;;;;;;;;;5009916;28;20053;-93
2024/02/08 11:25:23;;;;;;;3.78;3.47;;;;;;;;;;5001394;28;20108;-93
2024/02/08 11:27:51;;;;;;;4.07;3.70;;;;;;;;;;5005071;28;20050;-93
2024/02/08 11:30:20;;;;;;;4.15;3.85;;;;;;;;;;5005065;28;20109;-89
2024/02/08 11:33:03;;;;;;;4.55;4.15;;;;;;;;;;5006656;28;20112;-93
2024/02/08 11:35:35;;;;;;;3.90;3.60;;;;;;;;;;5007930;28;20061;-93
2024/02/08 11:38:17;;;;;;;3.65;3.35;;;;;;;;;;5004248;28;20089;-93
2024/02/08 11:40:45;;;;;;;4.72;3.90;;;;;;;;;;5006246;28;20096;-94
2024/02/08 11:43:19;;;;;;;5.40;4.05;;;;;;;;;;5007451;28;20053;-93
2024/02/08 11:45:57;;;;;;;8.05;5.00;;;;;;;;;;5005121;28;20145;-93
2024/02/08 11:48:29;;;;;;;4.60;3.55;;;;;;;;;;5011704;28;20046;-93
2024/02/08 11:51:02;;;;;;;3.92;3.53;;;;;;;;;;5004536;28;20050;-92
2024/02/08 11:53:33;;;;;;;4.50;4.10;;;;;;;;;;5012571;28;20143;-94
2024/02/08 11:56:07;;;;;;;4.43;3.95;;;;;;;;;;5020776;28;20045;-95
2024/02/08 11:58:35;;;;;;;4.35;4.03;;;;;;;;;;5026006;28;20050;-94
2024/02/08 12:01:06;;;;;;;4.32;3.95;;;;;;;;;;5003979;28;20108;-94
2024/02/08 12:03:41;;;;;;;4.63;4.22;;;;;;;;;;5001759;28;20085;-93
2024/02/08 12:06:08;;;;;;;5.82;4.07;;;;;;;;;;5007036;28;20046;-93
2024/02/08 12:08:36;;;;;;;5.10;4.57;;;;;;;;;;5006574;28;20049;-94
2024/02/08 12:11:12;;;;;;;5.20;4.53;;;;;;;;;;5001896;28;20100;-94
2024/02/08 12:13:40;;;;;;;4.93;4.43;;;;;;;;;;5007054;28;20058;-94
2024/02/08 12:16:07;;;;;;;4.53;4.07;;;;;;;;;;5010606;28;20058;-94
2024/02/08 12:18:35;;;;;;;4.55;4.15;;;;;;;;;;5011562;28;20613;-94
2024/02/08 12:21:04;;;;;;;4.57;4.18;;;;;;;;;;5003903;28;20054;-95
2024/02/08 12:23:31;;;;;;;5.10;4.60;;;;;;;;;;5004394;28;20050;-95
2024/02/08 12:26:06;;;;;;;5.50;4.43;;;;;;;;;;5007266;28;20058;-94
2024/02/08 12:28:38;;;;;;;5.82;4.40;;;;;;;;;;5007449;28;20120;-95
2024/02/08 12:31:16;;;;;;;4.72;4.32;;;;;;;;;;5007335;28;20046;-95
2024/02/08 12:33:46;;;;;;;4.65;4.25;;;;;;;;;;5005063;28;20457;-94
2024/02/08 12:36:16;;;;;;;5.22;4.47;;;;;;;;;;5006901;28;20494;-94
2024/02/08 12:38:46;;;;;;;5.13;4.40;;;;;;;;;;5008973;28;20112;-94
2024/02/08 12:41:16;;;;;;;4.35;4.03;;;;;;;;;;5015693;28;20490;-96
2024/02/08 12:43:46;;;;;;;4.63;4.18;;;;;;;;;;5005444;28;20046;-95
2024/02/08 12:46:17;;;;;;;5.72;4.47;;;;;;;;;;5001047;28;20399;-95
2024/02/08 12:48:46;;;;;;;5.20;4.80;;;;;;;;;;5013672;28;20046;-96
2024/02/08 12:51:23;;;;;;;8.10;5.13;;;;;;;;;;5001375;28;20050;-95
2024/02/08 12:53:57;;;;;;;6.53;5.13;;;;;;;;;;5022662;28;20112;-95
2024/02/08 12:56:25;;;;;;;5.57;5.00;;;;;;;;;;5007347;28;20054;-95
2024/02/08 12:59:02;;;;;;;8.50;5.63;;;;;;;;;;5018178;28;20045;-95
2024/02/08 13:01:38;;;;;;;6.25;5.65;;;;;;;;;;5009544;28;20467;-95
2024/02/08 13:04:07;;;;;;;6.20;5.60;;;;;;;;;;5020088;28;20095;-96
2024/02/08 13:06:35;;;;;;;7.57;5.80;;;;;;;;;;5009102;28;20054;-95
2024/02/08 13:09:16;;;;;;;8.32;6.20;;;;;;;;;;5005990;28;20068;-95
2024/02/08 13:11:44;;;;;;;5.90;5.35;;;;;;;;;;5030075;28;20058;-94
2024/02/08 13:14:14;;;;;;;5.95;5.35;;;;;;;;;;5019996;28;20046;-96
2024/02/08 13:16:41;;;;;;;8.20;5.88;;;;;;;;;;5008995;28;20053;-96
2024/02/08 13:19:13;;;;;;;8.70;5.47;;;;;;;;;;5012115;28;20054;-96
2024/02/08 13:21:44;;;;;;;7.73;6.27;;;;;;;;;;5005930;28;20145;-96
2024/02/08 13:24:12;;;;;;;9.38;5.68;;;;;;;;;;5005725;28;20068;-96
2024/02/08 13:26:39;;;;;;;8.40;5.53;;;;;;;;;;5004789;28;20123;-95
2024/02/08 13:29:11;;;;;;;5.25;4.63;;;;;;;;;;5012735;28;20049;-95
2024/02/08 13:31:39;;;;;;;8.93;6.10;;;;;;;;;;5015797;28;20061;-96
2024/02/08 13:34:09;;;;;;;8.45;5.18;;;;;;;;;;5009225;28;20112;-96
2024/02/08 13:36:43;;;;;;;5.75;5.18;;;;;;;;;;5008301;28;20462;-96
2024/02/08 13:39:11;;;;;;;10.32;5.57;;;;;;;;;;5006420;28;20061;-96
2024/02/08 13:41:46;;;;;;;7.80;5.75;;;;;;;;;;5007077;28;20057;-96
2024/02/08 13:44:14;;;;;;;6.57;5.40;;;;;;;;;;5009451;28;20049;-96
2024/02/08 13:46:42;;;;;;;6.28;5.45;;;;;;;;;;5026414;28;20053;-96
2024/02/08 13:49:10;;;;;;;5.82;5.15;;;;;;;;;;5014072;28;20077;-96
2024/02/08 13:51:37;;;;;;;8.23;6.43;;;;;;;;;;5004244;28;20461;-96
2024/02/08 13:54:05;;;;;;;6.50;5.78;;;;;;;;;;5002580;28;20046;-96
2024/02/08 13:56:36;;;;;;;9.38;6.32;;;;;;;;;;5006770;28;20061;-96
2024/02/08 13:59:03;;;;;;;8.18;7.30;;;;;;;;;;5005689;28;20046;-96
2024/02/08 14:01:32;;;;;;;10.43;8.55;;;;;;;;;;5005896;28;20383;-95
2024/02/08 14:04:05;;;;;;;12.23;8.55;;;;;;;;;;5008928;28;20103;-95
2024/02/08 14:06:41;;;;;;;10.77;8.15;;;;;;;;;;5007301;28;20057;-93
2024/02/08 14:09:21;;;;;;;12.13;7.97;;;;;;;;;;5004891;28;20395;-94
2024/02/08 14:11:52;;;;;;;12.48;8.40;;;;;;;;;;5014968;28;20464;-93
2024/02/08 14:14:23;;;;;;;10.55;8.00;;;;;;;;;;5015750;28;20061;-95
2024/02/08 14:16:55;;;;;;;9.07;7.72;;;;;;;;;;5008514;28;20117;-94
2024/02/08 14:19:33;;;;;;;7.95;7.07;;;;;;;;;;5008622;28;20049;-94
2024/02/08 14:22:06;;;;;;;12.48;7.70;;;;;;;;;;5005878;28;20061;-95
2024/02/08 14:24:49;;;;;;;12.97;7.20;;;;;;;;;;5009900;28;20038;-94
2024/02/08 14:27:17;;;;;;;10.77;7.72;;;;;;;;;;5022767;28;20042;-95
2024/02/08 14:29:47;;;;;;;12.98;8.23;;;;;;;;;;5021335;28;20049;-94
2024/02/08 14:32:15;;;;;;;11.32;7.97;;;;;;;;;;5008240;28;20049;-93
2024/02/08 14:34:58;;;;;;;10.43;7.80;;;;;;;;;;5017715;28;20049;-94
2024/02/08 14:37:28;;;;;;;15.27;8.38;;;;;;;;;;5012534;28;20054;-94
2024/02/08 14:39:56;;;;;;;13.50;8.18;;;;;;;;;;5004482;28;20054;-94
2024/02/08 14:42:27;;;;;;;15.63;9.00;;;;;;;;;;5004343;28;20081;-94
2024/02/08 14:44:56;;;;;;;11.10;8.52;;;;;;;;;;5004677;28;20056;-93
2024/02/08 14:47:30;;;;;;;11.57;8.65;;;;;;;;;;5012282;28;20107;-93
2024/02/08 14:49:59;;;;;;;12.65;9.10;;;;;;;;;;4996874;28;20065;-94
2024/02/08 14:52:34;;;;;;;11.98;9.70;;;;;;;;;;5004796;28;20108;-93
2024/02/08 14:55:19;;;;;;;14.23;9.18;;;;;;;;;;5001289;28;20096;-94
2024/02/08 14:57:52;;;;;;;13.82;10.35;;;;;;;;;;5005212;28;20136;-93
2024/02/08 15:03:09;;;;;;;16.15;10.77;;;;;;;;;;5028606;28;20050;-92
2024/02/08 15:05:47;;;;;;;14.07;9.90;;;;;;;;;;5004706;28;20056;-93
2024/02/08 15:11:02;;;;;;;12.38;9.07;;;;;;;;;;5023935;28;20065;-93
2024/02/08 15:13:45;;;;;;;15.27;10.25;;;;;;;;;;5007519;28;20478;-93
2024/02/08 15:16:14;;;;;;;12.73;10.02;;;;;;;;;;5004017;28;20050;-93
2024/02/08 15:18:47;;;;;;;14.27;9.85;;;;;;;;;;5005714;28;20054;-95
2024/02/08 15:21:23;;;;;;;21.13;12.73;;;;;;;;;;5007536;28;20081;-94
2024/02/08 15:26:38;;;;;;;35.75;28.25;;;;;;;;;;5024555;28;20123;-94
2024/02/08 15:29:07;;;;;;;30.10;20.70;;;;;;;;;;5014190;28;20042;-94
2024/02/08 15:42:10;;;;;;;15.68;11.40;;;;;;;;;;5044614;28;20034;-91
2024/02/08 15:45:13;;;;;;;22.23;15.75;;;;;;;;;;5008639;28;20046;-95
2024/02/08 15:47:34;;;;;;;20.95;14.88;;;;;;;;;;5032566;28;20057;-95
2024/02/08 15:50:14;;;;;;;20.17;14.68;;;;;;;;;;4999782;28;20054;-92
2024/02/08 15:52:43;;;;;;;27.90;17.75;;;;;;;;;;5017979;28;20067;-94
2024/02/08 15:55:14;;;;;;;30.20;21.52;;;;;;;;;;5015547;28;20177;-95
2024/02/08 15:57:53;;;;;;;19.17;14.77;;;;;;;;;;5005984;28;20045;-94
2024/02/08 16:01:01;;;;;;;19.40;12.95;;;;;;;;;;5003304;28;20085;-92
2024/02/08 16:03:25;;;;;;;16.58;11.57;;;;;;;;;;5029421;28;20111;-93
2024/02/08 16:05:59;;;;;;;13.70;10.15;;;;;;;;;;5024659;28;20053;-92
2024/02/08 16:08:32;;;;;;;14.18;10.50;;;;;;;;;;5014825;28;20049;-92
2024/02/08 16:11:18;;;;;;;15.70;10.93;;;;;;;;;;5007164;28;20135;-91
2024/02/08 16:14:05;;;;;;;23.20;11.02;;;;;;;;;;5013990;28;20441;-92
2024/02/08 16:16:33;;;;;;;16.17;10.50;;;;;;;;;;5015476;28;20474;-91
2024/02/08 16:21:47;;;;;;;13.15;9.93;;;;;;;;;;5022504;28;20165;-91
2024/02/08 16:24:17;;;;;;;13.50;9.68;;;;;;;;;;5006424;28;20390;-93
2024/02/08 16:26:56;;;;;;;13.93;10.02;;;;;;;;;;5014466;28;20061;-91
2024/02/08 16:29:34;;;;;;;14.35;10.13;;;;;;;;;;5008077;28;20045;-92
2024/02/08 16:32:07;;;;;;;14.43;10.27;;;;;;;;;;5016438;28;20042;-92
2024/02/08 16:34:50;;;;;;;13.87;10.40;;;;;;;;;;5014260;28;20049;-94
2024/02/08 16:40:14;;;;;;;13.30;9.75;;;;;;;;;;5026690;28;20041;-93
2024/02/08 16:42:47;;;;;;;16.45;10.65;;;;;;;;;;5016108;28;20053;-92
2024/02/08 16:45:27;;;;;;;10.45;8.30;;;;;;;;;;5004230;28;20396;-94
2024/02/08 16:48:08;;;;;;;13.32;9.00;;;;;;;;;;5010608;28;20132;-93
2024/02/08 16:50:45;;;;;;;11.95;9.23;;;;;;;;;;5009486;28;20508;-94
2024/02/08 16:53:20;;;;;;;14.68;9.90;;;;;;;;;;5018076;28;20072;-93
2024/02/08 16:55:58;;;;;;;12.80;9.05;;;;;;;;;;5037464;28;20048;-93
2024/02/08 16:58:37;;;;;;;11.07;8.32;;;;;;;;;;5008950;28;20073;-93
2024/02/08 17:01:29;;;;;;;12.85;9.20;;;;;;;;;;5008780;28;20376;-93
2024/02/08 17:04:00;;;;;;;15.15;10.02;;;;;;;;;;5007431;28;20073;-93
2024/02/08 17:06:34;;;;;;;11.02;8.70;;;;;;;;;;5015726;28;20048;-93
2024/02/08 17:11:41;;;;;;;10.80;8.40;;;;;;;;;;5025137;28;20061;-95
2024/02/08 17:14:18;;;;;;;12.10;9.98;;;;;;;;;;5017419;28;20053;-93
2024/02/08 17:16:47;;;;;;;13.88;10.00;;;;;;;;;;5013062;28;20097;-93
2024/02/08 17:24:29;;;;;;;12.23;8.88;;;;;;;;;;5026248;28;20056;-94
2024/02/08 17:27:02;;;;;;;8.52;6.70;;;;;;;;;;5006484;28;20057;-94
2024/02/08 17:29:36;;;;;;;13.20;8.18;;;;;;;;;;5006698;28;20077;-94
2024/02/08 17:32:07;;;;;;;8.50;7.45;;;;;;;;;;5016471;28;20482;-93
2024/02/08 17:34:37;;;;;;;9.70;7.32;;;;;;;;;;5005066;28;20138;-94
2024/02/08 17:37:05;;;;;;;14.07;10.05;;;;;;;;;;5008759;28;20066;-93